Time;durP1;ratioP1;P1;durP2;ratioP2;P2;SDS_P1;SDS_P2;PMS_P1;PMS_P2;Temp;Humidity;BMP_temperature;BMP_pressure;BME280_temperature;BME280_humidity;BME280_pressure;Samples;Min_cycle;Max_cycle;Signal;HPM_P1;HPM_P2
2023/10/17 00:01:11;;;;;;;;;;;12.80;49.70;;;;;;4956909;28;87782;-43
2023/10/17 00:03:37;;;;;;;;;;;12.80;49.70;;;;;;4953053;28;87001;-44
2023/10/17 00:06:09;;;;;;;;;;;12.80;49.80;;;;;;4952208;28;88958;-43
2023/10/17 00:08:35;;;;;;;;;;;12.70;49.70;;;;;;4952094;28;88998;-43
2023/10/17 00:11:11;;;;;;;;;;;12.70;49.70;;;;;;4953946;28;87083;-43
2023/10/17 00:13:44;;;;;;;;;;;12.70;49.70;;;;;;4954449;28;87464;-44
2023/10/17 00:16:14;;;;;;;;;;;12.70;49.70;;;;;;4951397;28;89663;-43
2023/10/17 00:18:40;;;;;;;;;;;12.70;49.70;;;;;;4953039;28;87226;-43
2023/10/17 00:21:25;;;;;;;;;;;12.70;49.70;;;;;;4953432;28;87574;-43
2023/10/17 00:23:51;;;;;;;;;;;12.70;49.70;;;;;;4955388;28;88085;-42
2023/10/17 00:26:18;;;;;;;;;;;12.60;49.60;;;;;;4953635;28;86987;-43
2023/10/17 00:28:51;;;;;;;;;;;12.60;49.70;;;;;;4951659;28;87834;-43
2023/10/17 00:31:19;;;;;;;;;;;12.60;49.80;;;;;;4950549;28;87017;-43
2023/10/17 00:33:48;;;;;;;;;;;12.60;49.80;;;;;;4952779;28;88082;-43
2023/10/17 00:36:16;;;;;;;;;;;12.60;49.70;;;;;;4952881;28;88019;-43
2023/10/17 00:38:45;;;;;;;;;;;12.60;49.60;;;;;;4951167;28;87242;-43
2023/10/17 00:41:19;;;;;;;;;;;12.60;49.70;;;;;;4953018;28;88561;-43
2023/10/17 00:43:48;;;;;;;;;;;12.50;49.70;;;;;;4950292;28;89636;-42
2023/10/17 00:46:16;;;;;;;;;;;12.50;49.70;;;;;;4956713;28;87064;-42
2023/10/17 00:48:42;;;;;;;;;;;12.50;49.80;;;;;;4950428;28;89500;-43
2023/10/17 00:51:08;;;;;;;;;;;12.50;49.70;;;;;;4954288;28;86423;-44
2023/10/17 00:53:39;;;;;;;;;;;12.50;49.80;;;;;;4951954;28;87982;-43
2023/10/17 00:56:06;;;;;;;;;;;12.40;49.70;;;;;;4952234;28;89846;-43
2023/10/17 00:58:33;;;;;;;;;;;12.40;49.70;;;;;;4950734;28;89021;-43
2023/10/17 01:01:09;;;;;;;;;;;12.40;49.80;;;;;;4954137;28;88349;-43
2023/10/17 01:03:41;;;;;;;;;;;12.40;49.70;;;;;;4951970;28;89746;-43
2023/10/17 01:08:50;;;;;;;;;;;12.40;49.70;;;;;;4949922;28;87151;-43
2023/10/17 01:11:24;;;;;;;;;;;12.40;49.60;;;;;;4952417;28;87547;-43
2023/10/17 01:13:53;;;;;;;;;;;12.40;49.50;;;;;;4951470;28;87752;-43
2023/10/17 01:16:19;;;;;;;;;;;12.30;49.70;;;;;;4952604;28;87255;-43
2023/10/17 01:18:45;;;;;;;;;;;12.30;49.60;;;;;;4952408;28;87211;-43
2023/10/17 01:21:14;;;;;;;;;;;12.30;49.50;;;;;;4951156;28;87897;-43
2023/10/17 01:23:40;;;;;;;;;;;12.30;49.60;;;;;;4953011;28;88771;-43
2023/10/17 01:26:08;;;;;;;;;;;12.30;49.60;;;;;;4951809;28;87143;-43
2023/10/17 01:28:35;;;;;;;;;;;12.30;49.60;;;;;;4955096;28;87404;-43
2023/10/17 01:31:03;;;;;;;;;;;12.30;49.60;;;;;;4952563;28;87109;-43
2023/10/17 01:33:31;;;;;;;;;;;12.30;49.60;;;;;;4950943;28;87519;-43
2023/10/17 01:35:58;;;;;;;;;;;12.30;49.50;;;;;;4953561;28;87485;-43
2023/10/17 01:38:28;;;;;;;;;;;12.30;49.60;;;;;;4950844;28;89095;-43
2023/10/17 01:40:57;;;;;;;;;;;12.20;49.60;;;;;;4953731;28;89002;-43
2023/10/17 01:43:23;;;;;;;;;;;12.20;49.70;;;;;;4954151;28;87269;-43
2023/10/17 01:45:50;;;;;;;;;;;12.20;49.50;;;;;;4953898;28;87158;-44
2023/10/17 01:48:15;;;;;;;;;;;12.20;49.60;;;;;;4953077;28;88062;-43
2023/10/17 01:50:41;;;;;;;;;;;12.20;50.10;;;;;;4959071;28;88045;-43
2023/10/17 01:53:13;;;;;;;;;;;12.20;49.50;;;;;;4955044;28;87537;-43
2023/10/17 01:55:39;;;;;;;;;;;12.10;49.60;;;;;;4953711;28;87133;-43
2023/10/17 01:58:07;;;;;;;;;;;12.10;49.60;;;;;;4956597;28;87217;-43
2023/10/17 02:02:59;;;;;;;;;;;12.10;49.60;;;;;;4955279;28;87935;-43
2023/10/17 02:05:25;;;;;;;;;;;12.10;49.60;;;;;;4955236;28;86343;-43
2023/10/17 02:07:51;;;;;;;;;;;12.10;49.50;;;;;;4954869;28;88318;-43
2023/10/17 02:10:21;;;;;;;;;;;12.00;49.50;;;;;;4955675;28;87926;-43
2023/10/17 02:12:48;;;;;;;;;;;12.00;49.50;;;;;;4958956;28;88180;-43
2023/10/17 02:15:19;;;;;;;;;;;11.90;49.60;;;;;;4953173;28;88717;-43
2023/10/17 02:17:46;;;;;;;;;;;12.00;49.70;;;;;;4955194;28;87026;-43
2023/10/17 02:20:30;;;;;;;;;;;11.90;49.60;;;;;;4955623;28;87412;-43
2023/10/17 02:22:57;;;;;;;;;;;12.00;49.60;;;;;;4954461;28;89440;-43
2023/10/17 02:25:34;;;;;;;;;;;11.90;49.60;;;;;;4954842;28;87139;-43
2023/10/17 02:28:03;;;;;;;;;;;11.90;49.70;;;;;;4953719;28;87846;-43
2023/10/17 02:30:28;;;;;;;;;;;11.90;49.60;;;;;;4955133;28;88976;-44
2023/10/17 02:32:54;;;;;;;;;;;11.90;49.70;;;;;;4955211;28;87073;-43
2023/10/17 02:35:36;;;;;;;;;;;11.90;49.50;;;;;;4956529;28;87505;-43
2023/10/17 02:38:04;;;;;;;;;;;11.80;49.50;;;;;;4953600;28;88140;-43
2023/10/17 02:40:34;;;;;;;;;;;11.90;49.60;;;;;;4953861;28;88374;-44
2023/10/17 02:43:02;;;;;;;;;;;11.80;49.50;;;;;;4955480;28;88005;-44
2023/10/17 02:45:28;;;;;;;;;;;11.80;49.60;;;;;;4953307;28;87252;-43
2023/10/17 02:47:54;;;;;;;;;;;11.80;49.60;;;;;;4957745;28;87854;-43
2023/10/17 02:52:59;;;;;;;;;;;11.80;49.60;;;;;;4949738;28;87040;-43
2023/10/17 02:55:25;;;;;;;;;;;11.70;49.60;;;;;;4957409;28;88702;-43
2023/10/17 02:57:53;;;;;;;;;;;11.70;49.60;;;;;;4953479;28;87104;-43
2023/10/17 03:00:21;;;;;;;;;;;11.70;49.60;;;;;;4954029;28;87243;-44
2023/10/17 03:02:48;;;;;;;;;;;11.70;49.60;;;;;;4954409;28;89482;-44
2023/10/17 03:05:14;;;;;;;;;;;11.70;49.50;;;;;;4952280;28;87209;-43
2023/10/17 03:07:42;;;;;;;;;;;11.70;49.60;;;;;;4955434;28;87407;-43
2023/10/17 03:10:08;;;;;;;;;;;11.70;49.70;;;;;;4953325;28;88099;-44
2023/10/17 03:12:49;;;;;;;;;;;11.60;49.70;;;;;;4953697;28;87163;-43
2023/10/17 03:17:40;;;;;;;;;;;11.60;49.60;;;;;;4957282;28;87954;-43
2023/10/17 03:20:09;;;;;;;;;;;11.60;49.70;;;;;;4954397;28;87544;-43
2023/10/17 03:22:35;;;;;;;;;;;11.50;49.60;;;;;;4952791;28;88066;-43
2023/10/17 03:25:18;;;;;;;;;;;11.50;49.60;;;;;;4955479;28;87122;-42
2023/10/17 03:27:48;;;;;;;;;;;11.60;49.70;;;;;;4953309;28;88100;-43
2023/10/17 03:30:14;;;;;;;;;;;11.50;49.60;;;;;;4955021;28;89339;-43
2023/10/17 03:36:04;;;;;;;;;;;11.50;49.80;;;;;;4932718;28;87184;-43
2023/10/17 03:38:36;;;;;;;;;;;11.40;49.80;;;;;;4952840;28;89599;-43
2023/10/17 03:43:53;;;;;;;;;;;11.50;49.70;;;;;;4951943;28;87317;-43
2023/10/17 03:46:19;;;;;;;;;;;11.40;49.90;;;;;;4952484;28;86325;-43
2023/10/17 03:48:52;;;;;;;;;;;11.40;49.70;;;;;;4951946;28;87894;-42
2023/10/17 03:51:25;;;;;;;;;;;11.40;49.60;;;;;;4953086;28;89311;-43
2023/10/17 03:53:53;;;;;;;;;;;11.40;49.70;;;;;;4954707;28;87888;-43
2023/10/17 03:56:25;;;;;;;;;;;11.40;49.70;;;;;;4951957;28;88442;-43
2023/10/17 03:59:07;;;;;;;;;;;11.40;49.70;;;;;;4954851;28;87718;-43
2023/10/17 04:01:36;;;;;;;;;;;11.30;49.70;;;;;;4952659;28;87548;-43
2023/10/17 04:04:02;;;;;;;;;;;11.30;49.70;;;;;;4955800;28;87573;-43
2023/10/17 04:09:17;;;;;;;;;;;11.40;49.70;;;;;;4949802;28;87328;-44
2023/10/17 04:12:03;;;;;;;;;;;11.30;49.80;;;;;;4952797;28;87289;-43
2023/10/17 04:14:50;;;;;;;;;;;11.30;49.80;;;;;;4952745;28;87338;-42
2023/10/17 04:17:15;;;;;;;;;;;11.20;49.80;;;;;;4952849;28;87804;-43
2023/10/17 04:19:41;;;;;;;;;;;11.20;49.90;;;;;;4951932;28;88948;-44
2023/10/17 04:22:17;;;;;;;;;;;11.20;49.90;;;;;;4954040;28;87145;-43
2023/10/17 04:24:46;;;;;;;;;;;11.20;49.80;;;;;;4951959;28;88963;-43
2023/10/17 04:29:38;;;;;;;;;;;11.10;49.90;;;;;;4952125;28;87398;-43
2023/10/17 04:32:13;;;;;;;;;;;11.10;49.90;;;;;;4953679;28;88125;-42
2023/10/17 04:34:45;;;;;;;;;;;11.10;50.00;;;;;;4952021;28;87114;-43
2023/10/17 04:37:16;;;;;;;;;;;11.10;50.00;;;;;;4952856;28;89459;-43
2023/10/17 04:39:48;;;;;;;;;;;11.10;49.90;;;;;;4953820;28;89657;-43
2023/10/17 04:42:26;;;;;;;;;;;11.10;50.00;;;;;;4947419;28;87074;-43
2023/10/17 04:45:03;;;;;;;;;;;11.00;50.00;;;;;;4951238;28;88079;-43
2023/10/17 04:47:30;;;;;;;;;;;11.00;49.90;;;;;;4957592;28;89695;-42
2023/10/17 04:49:56;;;;;;;;;;;11.00;50.10;;;;;;4957128;28;87358;-43
2023/10/17 04:52:28;;;;;;;;;;;11.00;50.10;;;;;;4953799;28;88244;-42
2023/10/17 04:54:58;;;;;;;;;;;10.90;50.20;;;;;;4948109;28;88927;-42
2023/10/17 04:57:47;;;;;;;;;;;11.00;50.10;;;;;;4952802;28;89081;-43
2023/10/17 05:00:11;;;;;;;;;;;10.90;50.00;;;;;;4950478;28;87541;-43
2023/10/17 05:02:36;;;;;;;;;;;10.90;50.20;;;;;;4949550;28;86976;-42
2023/10/17 06:18:49;;;;;;;;;;;10.60;50.30;;;;;;4958462;28;87917;-42
2023/10/17 06:34:18;;;;;;;;;;;10.60;50.40;;;;;;4952660;28;87971;-42
2023/10/17 06:36:45;;;;;;;;;;;10.60;50.40;;;;;;4954223;28;87086;-43
2023/10/17 06:39:17;;;;;;;;;;;10.60;50.30;;;;;;4956817;28;88802;-43
2023/10/17 06:41:44;;;;;;;;;;;10.50;50.30;;;;;;4952670;28;88008;-43
2023/10/17 06:44:11;;;;;;;;;;;10.50;50.40;;;;;;4948118;28;87173;-42
2023/10/17 06:46:40;;;;;;;;;;;10.60;50.40;;;;;;4956478;28;88909;-42
2023/10/17 06:49:09;;;;;;;;;;;10.50;50.40;;;;;;4953327;28;86404;-42
2023/10/17 06:51:39;;;;;;;;;;;10.50;50.50;;;;;;4952391;28;87494;-42
2023/10/17 06:54:12;;;;;;;;;;;10.50;50.50;;;;;;4950904;28;88717;-42
2023/10/17 06:56:41;;;;;;;;;;;10.60;50.50;;;;;;4956576;28;88086;-43
2023/10/17 06:59:15;;;;;;;;;;;10.50;50.50;;;;;;4952247;28;88411;-43
2023/10/17 07:01:42;;;;;;;;;;;10.50;51.30;;;;;;4951125;28;89634;-43
2023/10/17 07:04:11;;;;;;;;;;;10.50;50.60;;;;;;4952290;28;87177;-43
2023/10/17 07:06:38;;;;;;;;;;;10.50;50.70;;;;;;4953594;28;87333;-42
2023/10/17 07:09:06;;;;;;;;;;;10.50;50.50;;;;;;4954623;28;89624;-42
2023/10/17 07:11:35;;;;;;;;;;;10.40;50.60;;;;;;4955521;28;88880;-42
2023/10/17 07:16:34;;;;;;;;;;;10.40;50.60;;;;;;4952678;28;87133;-42
2023/10/17 07:19:46;;;;;;;;;;;10.40;50.60;;;;;;4952571;28;89059;-42
2023/10/17 07:24:34;;;;;;;;;;;10.40;50.80;;;;;;4954980;28;87827;-43
2023/10/17 07:27:01;;;;;;;;;;;10.40;50.80;;;;;;4955693;28;87551;-43
2023/10/17 07:29:29;;;;;;;;;;;10.30;50.90;;;;;;4953841;28;88007;-42
2023/10/17 07:32:01;;;;;;;;;;;10.30;51.00;;;;;;4951199;28;87390;-43
2023/10/17 07:34:33;;;;;;;;;;;10.30;51.00;;;;;;4954721;28;89449;-42
2023/10/17 07:37:12;;;;;;;;;;;10.30;51.00;;;;;;4952518;28;87193;-42
2023/10/17 07:39:37;;;;;;;;;;;10.30;51.20;;;;;;4954278;28;88780;-42
2023/10/17 07:42:04;;;;;;;;;;;10.30;51.20;;;;;;4949545;28;90427;-43
2023/10/17 07:44:34;;;;;;;;;;;10.20;51.20;;;;;;4952005;28;87198;-42
2023/10/17 07:47:19;;;;;;;;;;;10.30;51.20;;;;;;4953794;28;88663;-42
2023/10/17 07:49:47;;;;;;;;;;;10.30;51.30;;;;;;4952655;28;87910;-42
2023/10/17 07:52:15;;;;;;;;;;;10.30;51.30;;;;;;4955991;28;87512;-43
2023/10/17 07:54:57;;;;;;;;;;;10.30;51.30;;;;;;4952731;28;88104;-42
2023/10/17 07:57:26;;;;;;;;;;;10.30;51.30;;;;;;4954304;28;87711;-42
2023/10/17 07:59:52;;;;;;;;;;;10.20;51.30;;;;;;4953545;28;87376;-42
2023/10/17 08:02:22;;;;;;;;;;;10.20;51.40;;;;;;4954567;28;89477;-42
2023/10/17 08:04:51;;;;;;;;;;;10.20;51.40;;;;;;4951134;28;86432;-42
2023/10/17 08:07:20;;;;;;;;;;;10.20;51.50;;;;;;4952299;28;87931;-42
2023/10/17 08:10:10;;;;;;;;;;;10.20;51.40;;;;;;4952685;28;88053;-42
2023/10/17 08:12:35;;;;;;;;;;;10.20;51.50;;;;;;4952468;28;87930;-42
2023/10/17 08:15:19;;;;;;;;;;;10.20;51.50;;;;;;4955152;28;88256;-42
2023/10/17 08:17:45;;;;;;;;;;;10.20;51.50;;;;;;4951200;28;88835;-43
2023/10/17 08:23:06;;;;;;;;;;;10.20;51.50;;;;;;4952015;28;88419;-42
2023/10/17 08:25:39;;;;;;;;;;;10.20;51.50;;;;;;4953778;28;87150;-42
2023/10/17 08:28:13;;;;;;;;;;;10.20;51.60;;;;;;4950507;28;88932;-42
2023/10/17 08:30:38;;;;;;;;;;;10.20;51.60;;;;;;4953879;28;87296;-42
2023/10/17 08:35:39;;;;;;;;;;;10.20;51.60;;;;;;4955576;28;87627;-42
2023/10/17 08:38:11;;;;;;;;;;;10.20;51.80;;;;;;4953251;28;90369;-42
2023/10/17 08:43:10;;;;;;;;;;;10.20;51.70;;;;;;4948815;28;88142;-42
2023/10/17 08:45:37;;;;;;;;;;;10.20;51.70;;;;;;4950194;28;87195;-43
2023/10/17 08:48:05;;;;;;;;;;;10.20;51.70;;;;;;4954386;28;87412;-43
2023/10/17 08:50:38;;;;;;;;;;;10.20;51.80;;;;;;4950855;28;89454;-43
2023/10/17 08:53:07;;;;;;;;;;;10.20;51.90;;;;;;4953028;28;87369;-43
2023/10/17 08:55:32;;;;;;;;;;;10.20;51.80;;;;;;4951292;28;88867;-43
2023/10/17 08:57:59;;;;;;;;;;;10.20;51.70;;;;;;4958132;28;88349;-42
2023/10/17 09:03:24;;;;;;;;;;;10.30;51.90;;;;;;4949906;28;89418;-42
2023/10/17 09:06:03;;;;;;;;;;;10.20;51.80;;;;;;4952417;28;87237;-42
2023/10/17 09:11:25;;;;;;;;;;;10.20;51.90;;;;;;4954672;28;87284;-43
2023/10/17 09:16:16;;;;;;;;;;;10.20;51.80;;;;;;4955084;28;87602;-43
2023/10/17 09:18:47;;;;;;;;;;;10.20;52.00;;;;;;4955414;28;88034;-42
2023/10/17 09:21:14;;;;;;;;;;;10.10;52.10;;;;;;4957541;28;87654;-43
2023/10/17 09:23:41;;;;;;;;;;;10.10;52.10;;;;;;4956675;28;87938;-42
2023/10/17 09:26:07;;;;;;;;;;;10.10;52.30;;;;;;4956773;28;87696;-42
2023/10/17 09:28:33;;;;;;;;;;;10.10;52.20;;;;;;4956068;28;87859;-42
2023/10/17 09:31:03;;;;;;;;;;;10.10;52.20;;;;;;4953535;28;88401;-42
2023/10/17 09:33:32;;;;;;;;;;;10.10;52.10;;;;;;4956381;28;88248;-42
2023/10/17 09:35:59;;;;;;;;;;;10.10;52.10;;;;;;4957122;28;87625;-42
2023/10/17 09:38:26;;;;;;;;;;;10.10;52.20;;;;;;4956366;28;89521;-42
2023/10/17 09:40:53;;;;;;;;;;;10.10;52.30;;;;;;4953308;28;87304;-43
2023/10/17 09:43:19;;;;;;;;;;;10.10;52.20;;;;;;4962767;28;88845;-43
2023/10/17 09:45:48;;;;;;;;;;;10.10;52.30;;;;;;4955248;28;86800;-42
2023/10/17 09:48:15;;;;;;;;;;;10.10;52.30;;;;;;4956813;28;87614;-43
2023/10/17 09:50:42;;;;;;;;;;;10.10;52.30;;;;;;4953918;28;88012;-42
2023/10/17 09:53:17;;;;;;;;;;;10.10;52.90;;;;;;4954183;28;88047;-43
2023/10/17 09:55:45;;;;;;;;;;;10.10;52.40;;;;;;4956391;28;88082;-43
2023/10/17 09:58:14;;;;;;;;;;;10.00;52.40;;;;;;4956199;28;88185;-43
2023/10/17 10:00:42;;;;;;;;;;;10.00;52.40;;;;;;4954742;28;87132;-42
2023/10/17 10:03:08;;;;;;;;;;;10.00;52.40;;;;;;4957873;28;87944;-42
2023/10/17 10:05:34;;;;;;;;;;;10.00;52.60;;;;;;4956331;28;89567;-43
2023/10/17 10:08:03;;;;;;;;;;;10.00;52.50;;;;;;4955956;28;88970;-42
2023/10/17 10:10:48;;;;;;;;;;;10.00;52.50;;;;;;4953243;28;87208;-42
2023/10/17 10:13:14;;;;;;;;;;;10.00;52.50;;;;;;4957177;28;88062;-43
2023/10/17 10:15:50;;;;;;;;;;;10.00;52.50;;;;;;4955479;28;87383;-42
2023/10/17 10:18:16;;;;;;;;;;;10.00;52.60;;;;;;4951515;28;89033;-42
2023/10/17 10:20:55;;;;;;;;;;;10.00;52.70;;;;;;4955688;28;87348;-42
2023/10/17 10:23:32;;;;;;;;;;;10.00;52.50;;;;;;4953875;28;88699;-42
2023/10/17 10:26:13;;;;;;;;;;;10.00;52.70;;;;;;4958042;28;87315;-44
2023/10/17 10:28:39;;;;;;;;;;;10.00;52.70;;;;;;4954031;28;88345;-43
2023/10/17 10:31:27;;;;;;;;;;;10.00;52.50;;;;;;4952238;28;88251;-43
2023/10/17 10:33:53;;;;;;;;;;;10.10;52.60;;;;;;4954903;28;87615;-42
2023/10/17 10:36:20;;;;;;;;;;;10.10;52.60;;;;;;4952962;28;86571;-42
2023/10/17 10:38:45;;;;;;;;;;;10.10;52.80;;;;;;4960364;28;88135;-43
2023/10/17 10:41:15;;;;;;;;;;;10.00;52.70;;;;;;4952582;28;87182;-43
2023/10/17 10:43:41;;;;;;;;;;;10.10;52.60;;;;;;4952399;28;88977;-43
2023/10/17 10:46:08;;;;;;;;;;;10.10;52.80;;;;;;4952366;28;88024;-42
2023/10/17 10:48:33;;;;;;;;;;;10.10;53.00;;;;;;4954914;28;87129;-43
2023/10/17 10:51:00;;;;;;;;;;;10.10;52.70;;;;;;4957352;28;88621;-43
2023/10/17 10:53:29;;;;;;;;;;;10.10;52.70;;;;;;4953514;28;87429;-42
2023/10/17 10:56:02;;;;;;;;;;;10.10;52.80;;;;;;4951418;28;87633;-42
2023/10/17 10:58:28;;;;;;;;;;;10.10;52.90;;;;;;4951674;28;88001;-40
2023/10/17 11:00:54;;;;;;;;;;;10.10;52.70;;;;;;4955288;28;86411;-43
2023/10/17 11:03:21;;;;;;;;;;;10.10;52.70;;;;;;4952795;28;87460;-43
2023/10/17 11:05:57;;;;;;;;;;;10.10;52.60;;;;;;4951717;28;89554;-43
2023/10/17 11:08:22;;;;;;;;;;;10.10;52.60;;;;;;4954098;28;88991;-42
2023/10/17 11:10:48;;;;;;;;;;;10.10;52.90;;;;;;4954630;28;88255;-42
2023/10/17 11:13:15;;;;;;;;;;;10.10;52.70;;;;;;4954106;28;88029;-44
2023/10/17 11:15:43;;;;;;;;;;;10.10;52.70;;;;;;4949464;28;88979;-43
2023/10/17 11:18:09;;;;;;;;;;;10.20;52.80;;;;;;4954633;28;89498;-43
2023/10/17 11:20:35;;;;;;;;;;;10.20;52.80;;;;;;4954241;28;87103;-43
2023/10/17 11:23:02;;;;;;;;;;;10.20;52.60;;;;;;4951372;28;89023;-43
2023/10/17 11:25:29;;;;;;;;;;;10.20;52.70;;;;;;4955656;28;88112;-43
2023/10/17 11:28:02;;;;;;;;;;;10.20;52.80;;;;;;4955500;28;87080;-43
2023/10/17 11:30:34;;;;;;;;;;;10.20;52.80;;;;;;4953349;28;87458;-43
2023/10/17 11:33:01;;;;;;;;;;;10.20;52.70;;;;;;4947362;28;89913;-42
2023/10/17 11:35:30;;;;;;;;;;;10.20;52.80;;;;;;4962371;28;88393;-42
2023/10/17 11:37:56;;;;;;;;;;;10.20;52.90;;;;;;4951426;28;89596;-42
2023/10/17 11:40:29;;;;;;;;;;;10.20;52.80;;;;;;4952196;28;88995;-42
2023/10/17 11:42:58;;;;;;;;;;;10.20;52.60;;;;;;4953310;28;87658;-42
2023/10/17 11:45:33;;;;;;;;;;;10.20;52.90;;;;;;4951981;28;89598;-42
2023/10/17 11:48:14;;;;;;;;;;;10.20;52.90;;;;;;4954020;28;87309;-42
2023/10/17 11:50:40;;;;;;;;;;;10.20;52.80;;;;;;4951292;28;89029;-43
2023/10/17 11:53:09;;;;;;;;;;;10.20;53.10;;;;;;4957315;28;88102;-43
2023/10/17 11:55:42;;;;;;;;;;;10.20;53.00;;;;;;4956370;28;87020;-42
2023/10/17 11:58:08;;;;;;;;;;;10.20;52.80;;;;;;4953365;28;90911;-42
2023/10/17 12:00:35;;;;;;;;;;;10.20;52.80;;;;;;4949366;28;88955;-43
2023/10/17 12:03:00;;;;;;;;;;;10.20;52.90;;;;;;4950368;28;89080;-43
2023/10/17 12:05:27;;;;;;;;;;;10.20;53.10;;;;;;4953252;28;88249;-42
2023/10/17 12:07:59;;;;;;;;;;;10.30;52.90;;;;;;4952639;28;87394;-43
2023/10/17 12:10:25;;;;;;;;;;;10.30;52.80;;;;;;4954682;28;87232;-42
2023/10/17 12:13:04;;;;;;;;;;;10.20;53.00;;;;;;4950980;28;87098;-42
2023/10/17 12:15:29;;;;;;;;;;;10.20;52.90;;;;;;4952533;28;86852;-42
2023/10/17 12:17:56;;;;;;;;;;;10.20;53.20;;;;;;4956883;28;87363;-42
2023/10/17 12:20:28;;;;;;;;;;;10.30;53.20;;;;;;4953337;28;88876;-42
2023/10/17 12:22:57;;;;;;;;;;;10.30;53.10;;;;;;4948437;28;88130;-42
2023/10/17 12:25:25;;;;;;;;;;;10.30;53.10;;;;;;4952465;28;87925;-43
2023/10/17 12:27:52;;;;;;;;;;;10.30;53.30;;;;;;4956216;28;87210;-43
2023/10/17 12:30:24;;;;;;;;;;;10.30;53.20;;;;;;4947488;28;87523;-42
2023/10/17 12:32:49;;;;;;;;;;;10.30;53.10;;;;;;4955785;28;90142;-43
2023/10/17 12:35:16;;;;;;;;;;;10.20;53.20;;;;;;4952993;28;87107;-43
2023/10/17 12:37:45;;;;;;;;;;;10.30;53.40;;;;;;4952904;28;88155;-43
2023/10/17 12:40:18;;;;;;;;;;;10.30;53.30;;;;;;4954396;28;88777;-43
2023/10/17 12:42:44;;;;;;;;;;;10.30;53.20;;;;;;4953834;28;88109;-43
2023/10/17 12:45:14;;;;;;;;;;;10.30;53.40;;;;;;4952375;28;89396;-42
2023/10/17 12:47:43;;;;;;;;;;;10.30;53.50;;;;;;4946509;28;88100;-42
2023/10/17 12:50:12;;;;;;;;;;;10.30;53.40;;;;;;4950770;28;88334;-43
2023/10/17 12:52:38;;;;;;;;;;;10.30;53.40;;;;;;4954253;28;87953;-43
2023/10/17 12:55:07;;;;;;;;;;;10.30;53.30;;;;;;4952426;28;87480;-43
2023/10/17 12:57:38;;;;;;;;;;;10.30;53.30;;;;;;4953176;28;89058;-43
2023/10/17 13:00:09;;;;;;;;;;;10.30;53.40;;;;;;4952422;28;89390;-42
2023/10/17 13:02:35;;;;;;;;;;;10.30;53.60;;;;;;4956236;28;87079;-43
2023/10/17 13:05:01;;;;;;;;;;;10.30;53.20;;;;;;4952493;28;86982;-43
2023/10/17 13:07:27;;;;;;;;;;;10.30;53.20;;;;;;4952597;28;88018;-42
2023/10/17 13:09:52;;;;;;;;;;;10.30;53.70;;;;;;4952298;28;87183;-43
2023/10/17 13:12:19;;;;;;;;;;;10.30;53.50;;;;;;4953861;28;89144;-42
2023/10/17 13:14:44;;;;;;;;;;;10.30;53.40;;;;;;4951555;28;87167;-42
2023/10/17 13:17:11;;;;;;;;;;;10.30;53.80;;;;;;4952110;28;88310;-42
2023/10/17 13:19:43;;;;;;;;;;;10.30;53.60;;;;;;4955584;28;89311;-42
2023/10/17 13:22:14;;;;;;;;;;;10.30;53.40;;;;;;4953221;28;87102;-42
2023/10/17 13:24:40;;;;;;;;;;;10.30;53.90;;;;;;4955806;28;88639;-43
2023/10/17 13:27:06;;;;;;;;;;;10.30;53.70;;;;;;4954486;28;88195;-43
2023/10/17 13:29:31;;;;;;;;;;;10.30;53.60;;;;;;4953481;28;87808;-43
2023/10/17 13:31:58;;;;;;;;;;;10.40;53.70;;;;;;4951819;28;87113;-42
2023/10/17 13:34:26;;;;;;;;;;;10.40;53.60;;;;;;4951767;28;87153;-43
2023/10/17 13:36:52;;;;;;;;;;;10.40;53.80;;;;;;4952518;28;88272;-42
2023/10/17 13:39:22;;;;;;;;;;;10.40;53.50;;;;;;4956111;28;88168;-42
2023/10/17 13:41:50;;;;;;;;;;;10.30;53.60;;;;;;4956187;28;87073;-43
2023/10/17 13:44:16;;;;;;;;;;;10.30;53.90;;;;;;4956119;28;87195;-43
2023/10/17 13:46:41;;;;;;;;;;;10.30;53.60;;;;;;4950495;28;87491;-41
2023/10/17 13:49:08;;;;;;;;;;;10.40;53.80;;;;;;4959138;28;87640;-43
2023/10/17 13:51:34;;;;;;;;;;;10.40;53.80;;;;;;4952848;28;89266;-43
2023/10/17 13:54:00;;;;;;;;;;;10.40;54.10;;;;;;4957885;28;86960;-42
2023/10/17 13:56:27;;;;;;;;;;;10.30;54.10;;;;;;4951390;28;88839;-42
2023/10/17 13:58:52;;;;;;;;;;;10.40;53.70;;;;;;4958058;28;88207;-42
2023/10/17 14:01:27;;;;;;;;;;;10.40;54.20;;;;;;4954704;28;88047;-42
2023/10/17 14:03:54;;;;;;;;;;;10.40;54.00;;;;;;4951710;28;90148;-41
2023/10/17 14:06:21;;;;;;;;;;;10.40;53.70;;;;;;4957016;28;89189;-42
2023/10/17 14:08:46;;;;;;;;;;;10.40;54.10;;;;;;4955332;28;87417;-42
2023/10/17 14:11:17;;;;;;;;;;;10.40;54.10;;;;;;4955761;28;88190;-42
2023/10/17 14:13:49;;;;;;;;;;;10.40;54.10;;;;;;4953882;28;87868;-42
2023/10/17 14:16:14;;;;;;;;;;;10.40;53.90;;;;;;4953659;28;87123;-42
2023/10/17 14:18:42;;;;;;;;;;;10.40;53.80;;;;;;4955738;28;86697;-42
2023/10/17 14:23:57;;;;;;;;;;;10.40;54.10;;;;;;4955184;28;87932;-41
2023/10/17 14:26:24;;;;;;;;;;;10.40;54.00;;;;;;4954131;28;89383;-42
2023/10/17 14:28:52;;;;;;;;;;;10.40;54.40;;;;;;4960175;28;87736;-44
2023/10/17 14:31:18;;;;;;;;;;;10.40;54.30;;;;;;4954075;28;88090;-42
2023/10/17 14:33:44;;;;;;;;;;;10.40;54.30;;;;;;4954102;28;87285;-42
2023/10/17 14:36:09;;;;;;;;;;;10.40;54.50;;;;;;4952568;28;87101;-42
2023/10/17 14:38:35;;;;;;;;;;;10.40;54.30;;;;;;4952243;28;88758;-42
2023/10/17 14:41:09;;;;;;;;;;;10.50;54.60;;;;;;4954576;28;87544;-41
2023/10/17 14:43:35;;;;;;;;;;;10.50;54.50;;;;;;4952847;28;88886;-42
2023/10/17 14:46:01;;;;;;;;;;;10.40;54.40;;;;;;4953388;28;89471;-42
2023/10/17 14:48:26;;;;;;;;;;;10.50;54.90;;;;;;4955976;28;87061;-42
2023/10/17 14:50:52;;;;;;;;;;;10.40;54.80;;;;;;4955396;28;88232;-43
2023/10/17 14:53:19;;;;;;;;;;;10.50;54.50;;;;;;4956652;28;87146;-42
2023/10/17 14:56:05;;;;;;;;;;;10.40;54.80;;;;;;4956261;28;89616;-42
2023/10/17 14:58:33;;;;;;;;;;;10.50;54.90;;;;;;4961845;28;88562;-42
2023/10/17 15:01:00;;;;;;;;;;;10.50;55.00;;;;;;4952558;28;87159;-42
2023/10/17 15:03:25;;;;;;;;;;;10.50;54.80;;;;;;4950427;28;89423;-42
2023/10/17 15:05:54;;;;;;;;;;;10.50;55.00;;;;;;4952727;28;88203;-42
2023/10/17 15:08:20;;;;;;;;;;;10.50;54.90;;;;;;4954678;28;86650;-42
2023/10/17 15:10:45;;;;;;;;;;;10.50;55.10;;;;;;4953877;28;87080;-42
2023/10/17 15:13:11;;;;;;;;;;;10.50;54.90;;;;;;4957519;28;89600;-42
2023/10/17 15:15:37;;;;;;;;;;;10.50;54.90;;;;;;4955176;28;89247;-42
2023/10/17 15:18:04;;;;;;;;;;;10.50;55.00;;;;;;4954704;28;89055;-42
2023/10/17 15:20:30;;;;;;;;;;;10.50;55.10;;;;;;4955227;28;87106;-42
2023/10/17 15:22:58;;;;;;;;;;;10.50;55.00;;;;;;4953474;28;87508;-42
2023/10/17 15:25:23;;;;;;;;;;;10.50;55.70;;;;;;4953874;28;88029;-42
2023/10/17 15:27:50;;;;;;;;;;;10.50;55.20;;;;;;4953359;28;87255;-42
2023/10/17 15:30:18;;;;;;;;;;;10.50;55.30;;;;;;4955224;28;88528;-42
2023/10/17 15:32:44;;;;;;;;;;;10.50;55.30;;;;;;4952330;28;88726;-42
2023/10/17 15:35:13;;;;;;;;;;;10.50;55.10;;;;;;4957787;28;87227;-42
2023/10/17 15:37:49;;;;;;;;;;;10.50;55.20;;;;;;4954490;28;88114;-42
2023/10/17 15:40:21;;;;;;;;;;;10.50;55.40;;;;;;4954449;28;88050;-42
2023/10/17 15:42:47;;;;;;;;;;;10.50;55.30;;;;;;4953352;28;88356;-42
2023/10/17 15:45:14;;;;;;;;;;;10.50;55.50;;;;;;4953042;28;89409;-43
2023/10/17 15:47:43;;;;;;;;;;;10.50;55.50;;;;;;4954860;28;87497;-42
2023/10/17 15:50:12;;;;;;;;;;;10.50;55.40;;;;;;4955218;28;88857;-42
2023/10/17 15:52:38;;;;;;;;;;;10.50;55.50;;;;;;4954232;28;88003;-42
2023/10/17 15:55:07;;;;;;;;;;;10.50;55.50;;;;;;4956064;28;87517;-42
2023/10/17 15:57:32;;;;;;;;;;;10.50;55.10;;;;;;4953140;28;87173;-42
2023/10/17 15:59:58;;;;;;;;;;;10.50;55.40;;;;;;4954369;28;87202;-42
2023/10/17 16:02:23;;;;;;;;;;;10.50;55.40;;;;;;4951640;28;88614;-42
2023/10/17 16:04:49;;;;;;;;;;;10.50;55.00;;;;;;4953682;28;88771;-42
2023/10/17 16:07:14;;;;;;;;;;;10.60;55.10;;;;;;4954351;28;87154;-43
2023/10/17 16:09:42;;;;;;;;;;;10.50;55.20;;;;;;4952483;28;87603;-44
2023/10/17 16:12:08;;;;;;;;;;;10.50;55.20;;;;;;4953023;28;87608;-42
2023/10/17 16:14:33;;;;;;;;;;;10.50;55.20;;;;;;4953895;28;87138;-42
2023/10/17 16:16:59;;;;;;;;;;;10.50;55.20;;;;;;4954924;28;87447;-42
2023/10/17 16:19:24;;;;;;;;;;;10.50;55.00;;;;;;4954954;28;87102;-43
2023/10/17 16:21:50;;;;;;;;;;;10.60;55.30;;;;;;4952145;28;87787;-43
2023/10/17 16:24:16;;;;;;;;;;;10.50;55.20;;;;;;4953979;28;89434;-43
2023/10/17 16:26:43;;;;;;;;;;;10.60;55.30;;;;;;4953965;28;87140;-42
2023/10/17 16:29:09;;;;;;;;;;;10.50;55.20;;;;;;4952385;28;88171;-43
2023/10/17 16:31:35;;;;;;;;;;;10.50;55.00;;;;;;4952103;28;88026;-43
2023/10/17 16:34:00;;;;;;;;;;;10.60;55.10;;;;;;4954133;28;87139;-42
2023/10/17 16:36:26;;;;;;;;;;;10.60;55.20;;;;;;4951729;28;88040;-42
2023/10/17 16:38:52;;;;;;;;;;;10.50;55.20;;;;;;4955890;28;87891;-42